sensor_id;sensor_type;location;lat;lon;timestamp;temperature;humidity
33988;DHT22;37428;53.580;-1.666;2023-03-01T00:02:32;4.30;99.90
33988;DHT22;37428;53.580;-1.666;2023-03-01T00:05:44;4.30;99.90
33988;DHT22;37428;53.580;-1.666;2023-03-01T00:08:48;4.30;99.90
33988;DHT22;37428;53.580;-1.666;2023-03-01T00:11:56;4.30;99.90
33988;DHT22;37428;53.580;-1.666;2023-03-01T00:15:14;4.30;99.90
33988;DHT22;37428;53.580;-1.666;2023-03-01T00:18:16;4.30;99.90
33988;DHT22;37428;53.580;-1.666;2023-03-01T00:21:20;4.20;99.90
33988;DHT22;37428;53.580;-1.666;2023-03-01T00:24:24;4.30;99.90
33988;DHT22;37428;53.580;-1.666;2023-03-01T00:27:28;4.30;99.90
33988;DHT22;37428;53.580;-1.666;2023-03-01T00:30:33;4.30;99.90
33988;DHT22;37428;53.580;-1.666;2023-03-01T00:33:37;4.30;99.90
33988;DHT22;37428;53.580;-1.666;2023-03-01T00:36:39;4.30;99.90
33988;DHT22;37428;53.580;-1.666;2023-03-01T00:39:44;4.20;99.90
33988;DHT22;37428;53.580;-1.666;2023-03-01T00:42:46;4.20;99.90
33988;DHT22;37428;53.580;-1.666;2023-03-01T00:46:02;4.20;99.90
33988;DHT22;37428;53.580;-1.666;2023-03-01T00:49:07;4.20;99.90
33988;DHT22;37428;53.580;-1.666;2023-03-01T00:52:09;4.30;99.90
33988;DHT22;37428;53.580;-1.666;2023-03-01T00:55:44;4.20;99.90
33988;DHT22;37428;53.580;-1.666;2023-03-01T00:58:37;4.20;99.90
33988;DHT22;37428;53.580;-1.666;2023-03-01T01:01:41;4.20;99.90
33988;DHT22;37428;53.580;-1.666;2023-03-01T01:04:43;4.20;99.90
33988;DHT22;37428;53.580;-1.666;2023-03-01T01:07:46;4.20;99.90
33988;DHT22;37428;53.580;-1.666;2023-03-01T01:10:49;4.20;99.90
33988;DHT22;37428;53.580;-1.666;2023-03-01T01:13:52;4.20;99.90
33988;DHT22;37428;53.580;-1.666;2023-03-01T01:16:54;4.20;99.90
33988;DHT22;37428;53.580;-1.666;2023-03-01T01:19:58;4.30;99.90
33988;DHT22;37428;53.580;-1.666;2023-03-01T01:23:00;4.20;99.90
33988;DHT22;37428;53.580;-1.666;2023-03-01T01:26:08;4.20;99.90
33988;DHT22;37428;53.580;-1.666;2023-03-01T01:29:12;4.20;99.90
33988;DHT22;37428;53.580;-1.666;2023-03-01T01:32:14;4.30;99.90
33988;DHT22;37428;53.580;-1.666;2023-03-01T01:35:18;4.30;99.90
33988;DHT22;37428;53.580;-1.666;2023-03-01T01:38:20;4.30;99.90
33988;DHT22;37428;53.580;-1.666;2023-03-01T01:41:27;4.30;99.70
33988;DHT22;37428;53.580;-1.666;2023-03-01T01:44:30;4.30;99.60
33988;DHT22;37428;53.580;-1.666;2023-03-01T01:47:32;4.40;99.90
33988;DHT22;37428;53.580;-1.666;2023-03-01T01:50:35;4.30;99.70
33988;DHT22;37428;53.580;-1.666;2023-03-01T01:53:42;4.40;99.80
33988;DHT22;37428;53.580;-1.666;2023-03-01T01:56:50;4.40;99.90
33988;DHT22;37428;53.580;-1.666;2023-03-01T01:59:58;4.30;99.90
33988;DHT22;37428;53.580;-1.666;2023-03-01T02:03:04;4.30;99.80
33988;DHT22;37428;53.580;-1.666;2023-03-01T02:06:15;4.30;99.50
33988;DHT22;37428;53.580;-1.666;2023-03-01T02:09:21;4.20;99.20
33988;DHT22;37428;53.580;-1.666;2023-03-01T02:12:29;4.10;99.00
33988;DHT22;37428;53.580;-1.666;2023-03-01T02:15:33;4.10;99.90
33988;DHT22;37428;53.580;-1.666;2023-03-01T02:18:36;4.20;99.90
33988;DHT22;37428;53.580;-1.666;2023-03-01T02:21:48;4.10;99.40
33988;DHT22;37428;53.580;-1.666;2023-03-01T02:25:21;4.10;99.60
33988;DHT22;37428;53.580;-1.666;2023-03-01T02:28:30;4.10;99.50
33988;DHT22;37428;53.580;-1.666;2023-03-01T02:31:34;4.10;99.90
33988;DHT22;37428;53.580;-1.666;2023-03-01T02:34:47;4.10;99.90
33988;DHT22;37428;53.580;-1.666;2023-03-01T02:37:50;4.00;99.90
33988;DHT22;37428;53.580;-1.666;2023-03-01T02:40:52;4.00;99.90
33988;DHT22;37428;53.580;-1.666;2023-03-01T02:43:57;4.00;99.90
33988;DHT22;37428;53.580;-1.666;2023-03-01T02:47:02;4.10;99.90
33988;DHT22;37428;53.580;-1.666;2023-03-01T02:50:14;4.10;99.90
33988;DHT22;37428;53.580;-1.666;2023-03-01T02:53:28;4.10;99.90
33988;DHT22;37428;53.580;-1.666;2023-03-01T02:56:34;4.10;99.90
33988;DHT22;37428;53.580;-1.666;2023-03-01T02:59:39;4.10;99.90
33988;DHT22;37428;53.580;-1.666;2023-03-01T03:02:49;4.10;99.90
33988;DHT22;37428;53.580;-1.666;2023-03-01T03:05:52;4.20;99.90
33988;DHT22;37428;53.580;-1.666;2023-03-01T03:08:54;4.20;99.90
33988;DHT22;37428;53.580;-1.666;2023-03-01T03:11:57;4.20;99.90
33988;DHT22;37428;53.580;-1.666;2023-03-01T03:15:04;4.20;99.90
33988;DHT22;37428;53.580;-1.666;2023-03-01T03:18:11;4.20;99.90
33988;DHT22;37428;53.580;-1.666;2023-03-01T03:21:14;4.10;99.90
33988;DHT22;37428;53.580;-1.666;2023-03-01T03:24:18;4.10;99.90
33988;DHT22;37428;53.580;-1.666;2023-03-01T03:27:21;4.20;99.90
33988;DHT22;37428;53.580;-1.666;2023-03-01T03:30:28;4.20;99.90
33988;DHT22;37428;53.580;-1.666;2023-03-01T03:33:33;4.20;99.90
33988;DHT22;37428;53.580;-1.666;2023-03-01T03:36:35;4.20;99.90
33988;DHT22;37428;53.580;-1.666;2023-03-01T03:39:37;4.10;99.80
33988;DHT22;37428;53.580;-1.666;2023-03-01T03:42:39;4.10;99.90
33988;DHT22;37428;53.580;-1.666;2023-03-01T03:45:43;4.00;99.90
33988;DHT22;37428;53.580;-1.666;2023-03-01T03:48:46;4.00;99.90
33988;DHT22;37428;53.580;-1.666;2023-03-01T03:51:50;4.00;99.90
33988;DHT22;37428;53.580;-1.666;2023-03-01T03:54:53;4.10;99.90
33988;DHT22;37428;53.580;-1.666;2023-03-01T03:58:02;4.10;99.90
33988;DHT22;37428;53.580;-1.666;2023-03-01T04:01:08;4.10;99.90
33988;DHT22;37428;53.580;-1.666;2023-03-01T04:04:10;4.10;99.90
33988;DHT22;37428;53.580;-1.666;2023-03-01T04:07:36;4.10;99.90
33988;DHT22;37428;53.580;-1.666;2023-03-01T04:10:40;4.20;99.90
33988;DHT22;37428;53.580;-1.666;2023-03-01T04:14:02;4.10;99.90
33988;DHT22;37428;53.580;-1.666;2023-03-01T04:17:07;4.10;99.90
33988;DHT22;37428;53.580;-1.666;2023-03-01T04:20:12;4.10;99.90
33988;DHT22;37428;53.580;-1.666;2023-03-01T04:23:19;4.20;99.90
33988;DHT22;37428;53.580;-1.666;2023-03-01T04:26:21;4.20;99.90
33988;DHT22;37428;53.580;-1.666;2023-03-01T04:29:24;4.10;99.90
33988;DHT22;37428;53.580;-1.666;2023-03-01T04:32:46;4.10;99.90
33988;DHT22;37428;53.580;-1.666;2023-03-01T04:35:49;4.20;99.90
33988;DHT22;37428;53.580;-1.666;2023-03-01T04:38:52;4.00;99.90
33988;DHT22;37428;53.580;-1.666;2023-03-01T04:41:56;4.00;99.90
33988;DHT22;37428;53.580;-1.666;2023-03-01T04:45:05;4.00;99.90
33988;DHT22;37428;53.580;-1.666;2023-03-01T04:48:25;4.00;99.90
33988;DHT22;37428;53.580;-1.666;2023-03-01T04:51:35;3.90;99.90
33988;DHT22;37428;53.580;-1.666;2023-03-01T04:54:37;3.90;99.90
33988;DHT22;37428;53.580;-1.666;2023-03-01T04:57:41;3.90;99.90
33988;DHT22;37428;53.580;-1.666;2023-03-01T05:00:46;3.80;99.90
33988;DHT22;37428;53.580;-1.666;2023-03-01T05:03:53;3.80;99.90
33988;DHT22;37428;53.580;-1.666;2023-03-01T05:06:55;3.80;99.90
33988;DHT22;37428;53.580;-1.666;2023-03-01T05:09:59;3.80;99.90
33988;DHT22;37428;53.580;-1.666;2023-03-01T05:13:02;3.80;99.90
33988;DHT22;37428;53.580;-1.666;2023-03-01T05:16:06;3.80;99.90
33988;DHT22;37428;53.580;-1.666;2023-03-01T05:19:13;3.80;99.90
33988;DHT22;37428;53.580;-1.666;2023-03-01T05:22:30;3.90;99.90
33988;DHT22;37428;53.580;-1.666;2023-03-01T05:25:47;3.90;99.90
33988;DHT22;37428;53.580;-1.666;2023-03-01T05:29:02;3.90;99.90
33988;DHT22;37428;53.580;-1.666;2023-03-01T05:32:05;3.90;99.90
33988;DHT22;37428;53.580;-1.666;2023-03-01T05:35:08;3.90;99.90
33988;DHT22;37428;53.580;-1.666;2023-03-01T05:38:14;3.90;99.90
33988;DHT22;37428;53.580;-1.666;2023-03-01T05:41:22;3.90;99.90
33988;DHT22;37428;53.580;-1.666;2023-03-01T05:44:55;3.90;99.90
33988;DHT22;37428;53.580;-1.666;2023-03-01T05:47:48;3.90;99.90
33988;DHT22;37428;53.580;-1.666;2023-03-01T05:50:59;3.80;99.90
33988;DHT22;37428;53.580;-1.666;2023-03-01T05:54:03;3.90;99.90
33988;DHT22;37428;53.580;-1.666;2023-03-01T05:57:06;3.90;99.90
33988;DHT22;37428;53.580;-1.666;2023-03-01T06:03:41;3.90;99.90
33988;DHT22;37428;53.580;-1.666;2023-03-01T06:06:51;4.00;99.90
33988;DHT22;37428;53.580;-1.666;2023-03-01T06:09:54;4.00;99.90
33988;DHT22;37428;53.580;-1.666;2023-03-01T06:12:56;4.10;99.90
33988;DHT22;37428;53.580;-1.666;2023-03-01T06:16:03;4.10;99.70
33988;DHT22;37428;53.580;-1.666;2023-03-01T06:19:22;4.10;99.50
33988;DHT22;37428;53.580;-1.666;2023-03-01T06:22:50;4.20;99.40
33988;DHT22;37428;53.580;-1.666;2023-03-01T06:25:58;4.10;99.10
33988;DHT22;37428;53.580;-1.666;2023-03-01T06:29:00;4.00;99.50
33988;DHT22;37428;53.580;-1.666;2023-03-01T06:32:02;3.90;99.80
33988;DHT22;37428;53.580;-1.666;2023-03-01T06:35:07;3.80;99.90
33988;DHT22;37428;53.580;-1.666;2023-03-01T06:38:12;3.80;99.90
33988;DHT22;37428;53.580;-1.666;2023-03-01T06:41:21;3.80;99.90
33988;DHT22;37428;53.580;-1.666;2023-03-01T06:44:24;3.80;99.90
33988;DHT22;37428;53.580;-1.666;2023-03-01T06:47:27;3.80;99.90
33988;DHT22;37428;53.580;-1.666;2023-03-01T06:50:29;3.90;99.90
33988;DHT22;37428;53.580;-1.666;2023-03-01T06:53:50;3.90;99.90
33988;DHT22;37428;53.580;-1.666;2023-03-01T06:56:52;3.90;99.90
33988;DHT22;37428;53.580;-1.666;2023-03-01T06:59:56;3.90;99.90
33988;DHT22;37428;53.580;-1.666;2023-03-01T07:02:59;3.90;99.90
33988;DHT22;37428;53.580;-1.666;2023-03-01T07:06:02;3.90;99.90
33988;DHT22;37428;53.580;-1.666;2023-03-01T07:09:08;3.90;99.90
33988;DHT22;37428;53.580;-1.666;2023-03-01T07:12:52;3.90;99.80
33988;DHT22;37428;53.580;-1.666;2023-03-01T07:16:02;3.90;99.70
33988;DHT22;37428;53.580;-1.666;2023-03-01T07:19:04;3.90;99.70
33988;DHT22;37428;53.580;-1.666;2023-03-01T07:22:06;3.90;99.90
33988;DHT22;37428;53.580;-1.666;2023-03-01T07:25:11;3.90;99.80
33988;DHT22;37428;53.580;-1.666;2023-03-01T07:28:16;3.90;99.70
33988;DHT22;37428;53.580;-1.666;2023-03-01T07:31:21;4.00;99.70
33988;DHT22;37428;53.580;-1.666;2023-03-01T07:34:23;4.10;99.70
33988;DHT22;37428;53.580;-1.666;2023-03-01T07:37:25;4.10;99.40
33988;DHT22;37428;53.580;-1.666;2023-03-01T07:40:29;4.10;99.50
33988;DHT22;37428;53.580;-1.666;2023-03-01T07:43:31;4.10;99.20
33988;DHT22;37428;53.580;-1.666;2023-03-01T07:46:34;4.20;99.10
33988;DHT22;37428;53.580;-1.666;2023-03-01T07:49:39;4.20;98.70
33988;DHT22;37428;53.580;-1.666;2023-03-01T07:52:41;4.20;98.70
33988;DHT22;37428;53.580;-1.666;2023-03-01T07:55:45;4.20;98.70
33988;DHT22;37428;53.580;-1.666;2023-03-01T07:58:59;4.20;98.50
33988;DHT22;37428;53.580;-1.666;2023-03-01T08:02:13;4.30;98.70
33988;DHT22;37428;53.580;-1.666;2023-03-01T08:05:16;4.30;98.60
33988;DHT22;37428;53.580;-1.666;2023-03-01T08:08:18;4.30;98.60
33988;DHT22;37428;53.580;-1.666;2023-03-01T08:11:22;4.30;99.00
33988;DHT22;37428;53.580;-1.666;2023-03-01T08:14:34;4.30;98.50
33988;DHT22;37428;53.580;-1.666;2023-03-01T08:17:50;4.30;98.50
33988;DHT22;37428;53.580;-1.666;2023-03-01T08:20:53;4.40;98.80
33988;DHT22;37428;53.580;-1.666;2023-03-01T08:23:55;4.40;98.70
33988;DHT22;37428;53.580;-1.666;2023-03-01T08:27:01;4.50;98.30
33988;DHT22;37428;53.580;-1.666;2023-03-01T08:30:04;4.50;98.20
33988;DHT22;37428;53.580;-1.666;2023-03-01T08:33:15;4.60;98.50
33988;DHT22;37428;53.580;-1.666;2023-03-01T08:36:20;4.50;98.00
33988;DHT22;37428;53.580;-1.666;2023-03-01T08:39:23;4.60;98.00
33988;DHT22;37428;53.580;-1.666;2023-03-01T08:42:29;4.80;98.30
33988;DHT22;37428;53.580;-1.666;2023-03-01T08:45:33;4.90;98.00
33988;DHT22;37428;53.580;-1.666;2023-03-01T08:48:37;4.90;97.70
33988;DHT22;37428;53.580;-1.666;2023-03-01T08:51:39;4.90;97.30
33988;DHT22;37428;53.580;-1.666;2023-03-01T08:54:41;4.90;96.90
33988;DHT22;37428;53.580;-1.666;2023-03-01T08:57:47;4.80;96.70
33988;DHT22;37428;53.580;-1.666;2023-03-01T09:00:49;4.80;96.90
33988;DHT22;37428;53.580;-1.666;2023-03-01T09:03:51;4.70;96.90
33988;DHT22;37428;53.580;-1.666;2023-03-01T09:06:53;4.70;97.60
33988;DHT22;37428;53.580;-1.666;2023-03-01T09:10:08;4.70;97.70
33988;DHT22;37428;53.580;-1.666;2023-03-01T09:13:14;4.60;97.70
33988;DHT22;37428;53.580;-1.666;2023-03-01T09:16:18;4.60;98.70
33988;DHT22;37428;53.580;-1.666;2023-03-01T09:19:26;4.50;99.00
33988;DHT22;37428;53.580;-1.666;2023-03-01T09:22:29;4.50;99.00
33988;DHT22;37428;53.580;-1.666;2023-03-01T09:25:31;4.70;99.90
33988;DHT22;37428;53.580;-1.666;2023-03-01T09:28:43;4.90;99.90
33988;DHT22;37428;53.580;-1.666;2023-03-01T09:31:47;5.00;99.20
33988;DHT22;37428;53.580;-1.666;2023-03-01T09:34:49;5.10;96.90
33988;DHT22;37428;53.580;-1.666;2023-03-01T09:39:45;5.20;97.40
33988;DHT22;37428;53.580;-1.666;2023-03-01T09:42:00;5.20;96.20
33988;DHT22;37428;53.580;-1.666;2023-03-01T09:45:10;5.40;95.50
33988;DHT22;37428;53.580;-1.666;2023-03-01T09:48:16;5.50;95.40
33988;DHT22;37428;53.580;-1.666;2023-03-01T09:51:23;5.50;95.20
33988;DHT22;37428;53.580;-1.666;2023-03-01T09:54:29;5.70;95.80
33988;DHT22;37428;53.580;-1.666;2023-03-01T09:57:36;5.80;93.60
33988;DHT22;37428;53.580;-1.666;2023-03-01T10:00:44;6.10;95.10
33988;DHT22;37428;53.580;-1.666;2023-03-01T10:04:10;6.30;94.30
33988;DHT22;37428;53.580;-1.666;2023-03-01T10:07:40;6.50;93.50
33988;DHT22;37428;53.580;-1.666;2023-03-01T10:10:47;6.40;91.20
33988;DHT22;37428;53.580;-1.666;2023-03-01T10:13:55;6.30;92.10
33988;DHT22;37428;53.580;-1.666;2023-03-01T10:17:10;6.20;91.80
33988;DHT22;37428;53.580;-1.666;2023-03-01T10:20:18;6.00;90.90
33988;DHT22;37428;53.580;-1.666;2023-03-01T10:23:22;5.90;90.90
33988;DHT22;37428;53.580;-1.666;2023-03-01T10:26:41;5.70;91.10
33988;DHT22;37428;53.580;-1.666;2023-03-01T10:29:50;5.60;93.30
33988;DHT22;37428;53.580;-1.666;2023-03-01T10:32:57;5.60;95.10
33988;DHT22;37428;53.580;-1.666;2023-03-01T10:36:06;5.90;95.50
33988;DHT22;37428;53.580;-1.666;2023-03-01T10:39:15;6.40;96.30
33988;DHT22;37428;53.580;-1.666;2023-03-01T10:42:25;6.70;93.90
33988;DHT22;37428;53.580;-1.666;2023-03-01T10:45:34;6.70;93.20
33988;DHT22;37428;53.580;-1.666;2023-03-01T10:48:38;6.70;93.20
33988;DHT22;37428;53.580;-1.666;2023-03-01T10:51:49;6.60;93.20
33988;DHT22;37428;53.580;-1.666;2023-03-01T10:54:55;6.50;92.20
33988;DHT22;37428;53.580;-1.666;2023-03-01T10:58:08;6.50;91.90
33988;DHT22;37428;53.580;-1.666;2023-03-01T11:01:25;6.40;92.20
33988;DHT22;37428;53.580;-1.666;2023-03-01T11:04:29;6.30;90.50
33988;DHT22;37428;53.580;-1.666;2023-03-01T11:07:47;6.30;91.20
33988;DHT22;37428;53.580;-1.666;2023-03-01T11:10:49;6.50;89.40
33988;DHT22;37428;53.580;-1.666;2023-03-01T11:13:57;6.70;90.30
33988;DHT22;37428;53.580;-1.666;2023-03-01T11:17:03;6.70;89.90
33988;DHT22;37428;53.580;-1.666;2023-03-01T11:20:25;6.60;89.80
33988;DHT22;37428;53.580;-1.666;2023-03-01T11:23:28;6.70;90.40
33988;DHT22;37428;53.580;-1.666;2023-03-01T11:26:31;6.60;89.80
33988;DHT22;37428;53.580;-1.666;2023-03-01T11:29:38;6.50;89.10
33988;DHT22;37428;53.580;-1.666;2023-03-01T11:32:46;6.40;89.10
33988;DHT22;37428;53.580;-1.666;2023-03-01T11:35:55;6.40;89.50
33988;DHT22;37428;53.580;-1.666;2023-03-01T11:39:05;6.30;89.30
33988;DHT22;37428;53.580;-1.666;2023-03-01T11:42:18;6.30;87.60
33988;DHT22;37428;53.580;-1.666;2023-03-01T11:45:24;6.60;86.60
33988;DHT22;37428;53.580;-1.666;2023-03-01T11:48:43;6.90;87.40
33988;DHT22;37428;53.580;-1.666;2023-03-01T11:51:55;7.00;84.40
33988;DHT22;37428;53.580;-1.666;2023-03-01T11:55:14;7.30;83.70
33988;DHT22;37428;53.580;-1.666;2023-03-01T11:58:35;7.30;84.00
33988;DHT22;37428;53.580;-1.666;2023-03-01T12:05:27;6.80;85.60
33988;DHT22;37428;53.580;-1.666;2023-03-01T12:08:48;6.40;85.70
33988;DHT22;37428;53.580;-1.666;2023-03-01T12:12:34;6.30;89.30
33988;DHT22;37428;53.580;-1.666;2023-03-01T12:15:50;6.50;90.30
33988;DHT22;37428;53.580;-1.666;2023-03-01T12:19:07;6.80;89.80
33988;DHT22;37428;53.580;-1.666;2023-03-01T12:22:24;7.10;91.20
33988;DHT22;37428;53.580;-1.666;2023-03-01T12:25:37;7.10;87.50
33988;DHT22;37428;53.580;-1.666;2023-03-01T12:28:55;7.00;86.10
33988;DHT22;37428;53.580;-1.666;2023-03-01T12:32:15;7.20;88.20
33988;DHT22;37428;53.580;-1.666;2023-03-01T12:35:44;7.40;88.20
33988;DHT22;37428;53.580;-1.666;2023-03-01T12:38:54;7.30;85.60
33988;DHT22;37428;53.580;-1.666;2023-03-01T12:42:06;7.10;85.70
33988;DHT22;37428;53.580;-1.666;2023-03-01T12:45:30;7.00;87.30
33988;DHT22;37428;53.580;-1.666;2023-03-01T12:48:42;7.00;89.00
33988;DHT22;37428;53.580;-1.666;2023-03-01T12:51:50;7.00;88.70
33988;DHT22;37428;53.580;-1.666;2023-03-01T12:54:54;7.00;85.60
33988;DHT22;37428;53.580;-1.666;2023-03-01T12:58:07;7.10;87.50
33988;DHT22;37428;53.580;-1.666;2023-03-01T13:01:21;7.10;85.90
33988;DHT22;37428;53.580;-1.666;2023-03-01T13:04:39;7.30;85.90
33988;DHT22;37428;53.580;-1.666;2023-03-01T13:07:52;7.20;83.50
33988;DHT22;37428;53.580;-1.666;2023-03-01T13:11:01;7.40;81.50
33988;DHT22;37428;53.580;-1.666;2023-03-01T13:14:39;7.40;82.50
33988;DHT22;37428;53.580;-1.666;2023-03-01T13:17:46;7.40;82.80
33988;DHT22;37428;53.580;-1.666;2023-03-01T13:20:49;7.20;85.20
33988;DHT22;37428;53.580;-1.666;2023-03-01T13:23:52;6.90;86.30
33988;DHT22;37428;53.580;-1.666;2023-03-01T13:27:22;6.60;87.80
33988;DHT22;37428;53.580;-1.666;2023-03-01T13:30:41;6.60;89.40
33988;DHT22;37428;53.580;-1.666;2023-03-01T13:33:45;6.50;90.90
33988;DHT22;37428;53.580;-1.666;2023-03-01T13:36:49;6.70;91.20
33988;DHT22;37428;53.580;-1.666;2023-03-01T13:39:51;7.20;91.00
33988;DHT22;37428;53.580;-1.666;2023-03-01T13:42:53;7.70;90.30
33988;DHT22;37428;53.580;-1.666;2023-03-01T13:45:59;8.20;87.90
33988;DHT22;37428;53.580;-1.666;2023-03-01T13:49:03;8.60;86.00
33988;DHT22;37428;53.580;-1.666;2023-03-01T13:52:05;8.70;84.90
33988;DHT22;37428;53.580;-1.666;2023-03-01T13:55:17;8.60;82.50
33988;DHT22;37428;53.580;-1.666;2023-03-01T13:58:23;8.30;81.50
33988;DHT22;37428;53.580;-1.666;2023-03-01T14:01:29;8.40;83.30
33988;DHT22;37428;53.580;-1.666;2023-03-01T14:04:33;8.00;81.60
33988;DHT22;37428;53.580;-1.666;2023-03-01T14:07:36;7.80;82.30
33988;DHT22;37428;53.580;-1.666;2023-03-01T14:10:49;7.70;82.50
33988;DHT22;37428;53.580;-1.666;2023-03-01T14:17:58;8.10;82.30
33988;DHT22;37428;53.580;-1.666;2023-03-01T14:21:12;8.10;81.50
33988;DHT22;37428;53.580;-1.666;2023-03-01T14:24:17;8.10;81.50
33988;DHT22;37428;53.580;-1.666;2023-03-01T14:27:20;7.80;81.90
33988;DHT22;37428;53.580;-1.666;2023-03-01T14:30:25;7.50;82.20
33988;DHT22;37428;53.580;-1.666;2023-03-01T14:33:29;7.50;83.60
33988;DHT22;37428;53.580;-1.666;2023-03-01T14:36:34;7.40;84.00
33988;DHT22;37428;53.580;-1.666;2023-03-01T14:39:36;7.30;82.60
33988;DHT22;37428;53.580;-1.666;2023-03-01T14:42:46;7.40;81.60
33988;DHT22;37428;53.580;-1.666;2023-03-01T14:45:49;7.40;83.50
33988;DHT22;37428;53.580;-1.666;2023-03-01T14:49:01;7.20;83.10
33988;DHT22;37428;53.580;-1.666;2023-03-01T14:52:06;6.90;86.20
33988;DHT22;37428;53.580;-1.666;2023-03-01T14:55:16;6.60;88.40
33988;DHT22;37428;53.580;-1.666;2023-03-01T14:58:20;6.50;87.20
33988;DHT22;37428;53.580;-1.666;2023-03-01T15:01:24;6.50;87.90
33988;DHT22;37428;53.580;-1.666;2023-03-01T15:04:28;6.50;86.30
33988;DHT22;37428;53.580;-1.666;2023-03-01T15:07:35;6.50;84.50
33988;DHT22;37428;53.580;-1.666;2023-03-01T15:10:40;6.50;85.10
33988;DHT22;37428;53.580;-1.666;2023-03-01T15:13:44;6.50;84.10
33988;DHT22;37428;53.580;-1.666;2023-03-01T15:16:47;6.60;84.40
33988;DHT22;37428;53.580;-1.666;2023-03-01T15:19:53;6.60;83.90
33988;DHT22;37428;53.580;-1.666;2023-03-01T15:22:56;6.60;84.80
33988;DHT22;37428;53.580;-1.666;2023-03-01T15:25:58;6.60;86.70
33988;DHT22;37428;53.580;-1.666;2023-03-01T15:29:01;6.60;86.80
33988;DHT22;37428;53.580;-1.666;2023-03-01T15:32:26;6.60;87.30
33988;DHT22;37428;53.580;-1.666;2023-03-01T15:35:40;6.50;88.80
33988;DHT22;37428;53.580;-1.666;2023-03-01T15:38:54;6.50;89.90
33988;DHT22;37428;53.580;-1.666;2023-03-01T15:41:57;6.50;90.10
33988;DHT22;37428;53.580;-1.666;2023-03-01T15:45:27;6.50;89.80
33988;DHT22;37428;53.580;-1.666;2023-03-01T15:48:30;6.50;89.50
33988;DHT22;37428;53.580;-1.666;2023-03-01T15:51:35;6.50;88.00
33988;DHT22;37428;53.580;-1.666;2023-03-01T15:54:39;6.50;87.80
33988;DHT22;37428;53.580;-1.666;2023-03-01T15:57:41;6.60;87.00
33988;DHT22;37428;53.580;-1.666;2023-03-01T16:00:45;6.70;86.10
33988;DHT22;37428;53.580;-1.666;2023-03-01T16:03:49;6.70;85.80
33988;DHT22;37428;53.580;-1.666;2023-03-01T16:06:53;6.60;86.20
33988;DHT22;37428;53.580;-1.666;2023-03-01T16:09:55;6.50;85.10
33988;DHT22;37428;53.580;-1.666;2023-03-01T16:12:57;6.40;85.00
33988;DHT22;37428;53.580;-1.666;2023-03-01T16:16:00;6.30;84.70
33988;DHT22;37428;53.580;-1.666;2023-03-01T16:19:02;6.30;85.50
33988;DHT22;37428;53.580;-1.666;2023-03-01T16:22:06;6.20;86.40
33988;DHT22;37428;53.580;-1.666;2023-03-01T16:25:11;6.10;88.20
33988;DHT22;37428;53.580;-1.666;2023-03-01T16:28:13;6.00;89.20
33988;DHT22;37428;53.580;-1.666;2023-03-01T16:31:21;6.00;89.90
33988;DHT22;37428;53.580;-1.666;2023-03-01T16:34:23;6.00;90.40
33988;DHT22;37428;53.580;-1.666;2023-03-01T16:37:40;6.00;91.70
33988;DHT22;37428;53.580;-1.666;2023-03-01T16:40:47;6.00;91.70
33988;DHT22;37428;53.580;-1.666;2023-03-01T16:43:50;5.90;91.30
33988;DHT22;37428;53.580;-1.666;2023-03-01T16:46:52;5.80;90.70
33988;DHT22;37428;53.580;-1.666;2023-03-01T16:49:56;5.80;92.50
33988;DHT22;37428;53.580;-1.666;2023-03-01T16:53:00;5.80;91.30
33988;DHT22;37428;53.580;-1.666;2023-03-01T16:56:06;5.80;92.00
33988;DHT22;37428;53.580;-1.666;2023-03-01T16:59:10;5.90;92.00
33988;DHT22;37428;53.580;-1.666;2023-03-01T17:02:12;5.90;91.70
33988;DHT22;37428;53.580;-1.666;2023-03-01T17:05:15;5.80;90.80
33988;DHT22;37428;53.580;-1.666;2023-03-01T17:08:19;5.80;91.50
33988;DHT22;37428;53.580;-1.666;2023-03-01T17:11:49;5.70;91.40
33988;DHT22;37428;53.580;-1.666;2023-03-01T17:14:53;5.70;92.00
33988;DHT22;37428;53.580;-1.666;2023-03-01T17:17:55;5.70;92.00
33988;DHT22;37428;53.580;-1.666;2023-03-01T17:20:57;5.70;92.00
33988;DHT22;37428;53.580;-1.666;2023-03-01T17:24:01;5.70;92.30
33988;DHT22;37428;53.580;-1.666;2023-03-01T17:27:05;5.70;92.40
33988;DHT22;37428;53.580;-1.666;2023-03-01T17:30:17;5.70;93.00
33988;DHT22;37428;53.580;-1.666;2023-03-01T17:33:40;5.60;92.50
33988;DHT22;37428;53.580;-1.666;2023-03-01T17:36:42;5.60;93.90
33988;DHT22;37428;53.580;-1.666;2023-03-01T17:40:18;5.40;93.90
33988;DHT22;37428;53.580;-1.666;2023-03-01T17:43:11;5.30;94.70
33988;DHT22;37428;53.580;-1.666;2023-03-01T17:46:13;5.20;95.20
33988;DHT22;37428;53.580;-1.666;2023-03-01T17:49:17;5.00;95.80
33988;DHT22;37428;53.580;-1.666;2023-03-01T17:52:19;5.00;96.80
33988;DHT22;37428;53.580;-1.666;2023-03-01T17:55:27;5.00;96.50
33988;DHT22;37428;53.580;-1.666;2023-03-01T17:58:29;4.90;96.80
33988;DHT22;37428;53.580;-1.666;2023-03-01T18:01:33;5.00;97.20
33988;DHT22;37428;53.580;-1.666;2023-03-01T18:04:36;4.80;96.10
33988;DHT22;37428;53.580;-1.666;2023-03-01T18:07:38;4.90;96.80
33988;DHT22;37428;53.580;-1.666;2023-03-01T18:10:42;4.80;96.00
33988;DHT22;37428;53.580;-1.666;2023-03-01T18:13:45;4.80;96.20
33988;DHT22;37428;53.580;-1.666;2023-03-01T18:16:48;4.80;95.70
33988;DHT22;37428;53.580;-1.666;2023-03-01T18:19:51;4.80;96.20
33988;DHT22;37428;53.580;-1.666;2023-03-01T18:22:53;4.80;95.50
33988;DHT22;37428;53.580;-1.666;2023-03-01T18:25:58;4.70;96.00
33988;DHT22;37428;53.580;-1.666;2023-03-01T18:29:01;4.70;96.30
33988;DHT22;37428;53.580;-1.666;2023-03-01T18:32:05;4.70;96.70
33988;DHT22;37428;53.580;-1.666;2023-03-01T18:35:07;4.80;97.10
33988;DHT22;37428;53.580;-1.666;2023-03-01T18:38:09;4.90;97.10
33988;DHT22;37428;53.580;-1.666;2023-03-01T18:41:13;5.00;96.70
33988;DHT22;37428;53.580;-1.666;2023-03-01T18:44:16;4.90;96.10
33988;DHT22;37428;53.580;-1.666;2023-03-01T18:47:19;4.80;96.30
33988;DHT22;37428;53.580;-1.666;2023-03-01T18:50:23;4.90;97.30
33988;DHT22;37428;53.580;-1.666;2023-03-01T18:53:25;4.70;96.80
33988;DHT22;37428;53.580;-1.666;2023-03-01T18:56:30;4.80;96.60
33988;DHT22;37428;53.580;-1.666;2023-03-01T18:59:35;4.70;97.20
33988;DHT22;37428;53.580;-1.666;2023-03-01T19:02:49;4.80;97.40
33988;DHT22;37428;53.580;-1.666;2023-03-01T19:05:51;4.70;97.10
33988;DHT22;37428;53.580;-1.666;2023-03-01T19:08:53;4.60;96.90
33988;DHT22;37428;53.580;-1.666;2023-03-01T19:11:57;4.60;96.90
33988;DHT22;37428;53.580;-1.666;2023-03-01T19:15:02;4.40;97.30
33988;DHT22;37428;53.580;-1.666;2023-03-01T19:18:03;4.40;98.00
33988;DHT22;37428;53.580;-1.666;2023-03-01T19:21:07;4.40;98.10
33988;DHT22;37428;53.580;-1.666;2023-03-01T19:24:10;4.50;98.10
33988;DHT22;37428;53.580;-1.666;2023-03-01T19:27:13;4.50;97.90
33988;DHT22;37428;53.580;-1.666;2023-03-01T19:30:16;4.50;98.30
33988;DHT22;37428;53.580;-1.666;2023-03-01T19:33:18;4.50;98.50
33988;DHT22;37428;53.580;-1.666;2023-03-01T19:36:20;4.50;99.10
33988;DHT22;37428;53.580;-1.666;2023-03-01T19:39:24;4.50;98.90
33988;DHT22;37428;53.580;-1.666;2023-03-01T19:42:28;4.60;99.40
33988;DHT22;37428;53.580;-1.666;2023-03-01T19:45:30;4.60;98.40
33988;DHT22;37428;53.580;-1.666;2023-03-01T19:48:33;4.60;99.50
33988;DHT22;37428;53.580;-1.666;2023-03-01T19:51:41;4.70;99.50
33988;DHT22;37428;53.580;-1.666;2023-03-01T19:54:43;4.70;98.80